Time;durP1;ratioP1;P1;durP2;ratioP2;P2;SDS_P1;SDS_P2;PMS_P1;PMS_P2;Temp;Humidity;BMP_temperature;BMP_pressure;BME280_temperature;BME280_humidity;BME280_pressure;Samples;Min_cycle;Max_cycle;Signal;HPM_P1;HPM_P2
2023/10/17 00:01:00;;;;;;;11.43;6.83;;;8.50;99.90;;;;;;4996285;28;20369;-78
2023/10/17 00:03:26;;;;;;;13.90;6.93;;;8.60;99.90;;;;;;4995862;28;20109;-78
2023/10/17 00:05:56;;;;;;;14.27;8.50;;;8.60;99.90;;;;;;4996131;28;20623;-77
2023/10/17 00:08:23;;;;;;;10.70;7.17;;;8.60;99.90;;;;;;4996034;28;20758;-78
2023/10/17 00:10:49;;;;;;;15.30;7.83;;;8.60;99.90;;;;;;4996089;28;20281;-78
2023/10/17 00:15:56;;;;;;;10.77;7.07;;;8.60;99.90;;;;;;4995824;28;20270;-75
2023/10/17 00:18:25;;;;;;;11.57;7.40;;;8.60;99.90;;;;;;4995748;28;20301;-75
2023/10/17 00:20:53;;;;;;;11.37;7.00;;;8.60;99.90;;;;;;4995836;28;20410;-75
2023/10/17 00:23:22;;;;;;;12.37;6.67;;;8.60;99.90;;;;;;4994614;28;20293;-75
2023/10/17 00:25:52;;;;;;;12.10;6.50;;;8.60;99.90;;;;;;4995478;28;20298;-75
2023/10/17 00:28:21;;;;;;;10.70;6.23;;;8.60;99.90;;;;;;4995183;28;20278;-75
2023/10/17 00:30:51;;;;;;;10.07;5.63;;;8.60;99.90;;;;;;4995443;28;20284;-75
2023/10/17 00:33:20;;;;;;;8.27;4.80;;;8.60;99.90;;;;;;4995303;28;20293;-76
2023/10/17 00:35:49;;;;;;;11.67;5.47;;;8.60;99.90;;;;;;4995628;28;20278;-76
2023/10/17 00:38:15;;;;;;;8.60;5.07;;;8.60;99.90;;;;;;4995295;28;20777;-75
2023/10/17 00:40:51;;;;;;;13.00;5.83;;;8.60;99.90;;;;;;4995414;28;20316;-78
2023/10/17 00:43:17;;;;;;;11.17;5.83;;;8.60;99.90;;;;;;4995123;28;20277;-77
2023/10/17 00:45:47;;;;;;;10.30;5.67;;;8.60;99.90;;;;;;4991986;28;20856;-78
2023/10/17 00:48:22;;;;;;;9.20;5.23;;;8.60;99.90;;;;;;4975816;28;20364;-77
2023/10/17 00:50:58;;;;;;;9.25;5.35;;;8.60;99.90;;;;;;4976046;28;20285;-78
2023/10/17 00:53:24;;;;;;;;;;;8.60;99.90;;;;;;4976060;28;20060;-77
2023/10/17 00:55:59;;;;;;;10.33;4.90;;;8.60;99.90;;;;;;4974702;28;19922;-78
2023/10/17 00:58:27;;;;;;;8.53;4.63;;;8.60;99.90;;;;;;4975575;28;20282;-78
2023/10/17 01:00:59;;;;;;;9.27;5.37;;;8.60;99.90;;;;;;4975762;28;20612;-78
2023/10/17 01:03:28;;;;;;;11.00;5.57;;;8.50;99.90;;;;;;4975298;28;20836;-78
2023/10/17 01:05:57;;;;;;;11.03;5.40;;;8.50;99.90;;;;;;4975494;28;20305;-78
2023/10/17 01:11:27;;;;;;;8.57;4.40;;;8.50;99.90;;;;;;4963344;28;20301;-78
2023/10/17 01:13:54;;;;;;;10.13;4.47;;;8.50;99.90;;;;;;4974596;28;20282;-78
2023/10/17 01:16:20;;;;;;;9.53;4.77;;;8.60;99.90;;;;;;4974219;28;20369;-78
2023/10/17 01:18:46;;;;;;;9.17;4.57;;;8.60;99.90;;;;;;4975470;28;20293;-78
2023/10/17 01:21:20;;;;;;;8.77;4.70;;;8.60;99.90;;;;;;4975408;28;20770;-78
2023/10/17 01:23:49;;;;;;;8.57;4.30;;;8.60;99.90;;;;;;4975694;28;20279;-78
2023/10/17 01:26:50;;;;;;;11.27;4.70;;;8.60;99.90;;;;;;4975050;28;20360;-78
2023/10/17 01:29:12;;;;;;;11.40;4.60;;;8.70;99.90;;;;;;4973703;28;20360;-77
2023/10/17 01:31:44;;;;;;;8.23;4.03;;;8.60;99.90;;;;;;4975083;28;20829;-77
2023/10/17 01:34:11;;;;;;;9.57;4.13;;;8.70;99.90;;;;;;4975079;28;20289;-78
2023/10/17 01:36:42;;;;;;;7.40;4.00;;;8.60;99.90;;;;;;4973526;28;21181;-79
2023/10/17 01:39:08;;;;;;;11.63;3.90;;;8.60;99.90;;;;;;4975208;28;20290;-79
2023/10/17 01:41:35;;;;;;;9.67;4.03;;;8.60;99.90;;;;;;4973008;28;20294;-78
2023/10/17 01:44:01;;;;;;;9.13;3.70;;;8.50;99.90;;;;;;4975220;28;20309;-78
2023/10/17 01:46:30;;;;;;;6.53;3.80;;;8.50;99.90;;;;;;4974367;28;20762;-78
2023/10/17 01:49:10;;;;;;;8.50;4.10;;;8.40;99.90;;;;;;4975008;28;20369;-78
2023/10/17 01:51:36;;;;;;;9.60;4.00;;;8.50;99.90;;;;;;4974451;28;20758;-78
2023/10/17 01:54:07;;;;;;;8.67;4.37;;;8.40;99.90;;;;;;4974560;28;20278;-78
2023/10/17 01:56:38;;;;;;;10.97;3.93;;;8.40;99.90;;;;;;4974465;28;20278;-78
2023/10/17 01:59:12;;;;;;;9.60;3.87;;;8.30;99.90;;;;;;4974948;28;20278;-78
2023/10/17 02:01:40;;;;;;;8.17;3.60;;;8.30;99.90;;;;;;4974354;28;20288;-78
2023/10/17 02:04:12;;;;;;;9.50;4.33;;;8.30;99.90;;;;;;4974382;28;20289;-77
2023/10/17 02:06:39;;;;;;;11.70;3.50;;;8.30;99.90;;;;;;4974053;28;20849;-78
2023/10/17 02:11:54;;;;;;;11.27;3.50;;;8.40;99.90;;;;;;4973697;28;20290;-78
2023/10/17 02:14:23;;;;;;;8.87;3.70;;;8.20;99.90;;;;;;4973227;28;20329;-78
2023/10/17 02:16:49;;;;;;;8.10;3.50;;;8.20;99.90;;;;;;4974292;28;20330;-77
2023/10/17 02:19:17;;;;;;;10.10;3.80;;;8.20;99.90;;;;;;4974415;28;20380;-77
2023/10/17 02:21:43;;;;;;;9.60;3.77;;;8.20;99.90;;;;;;4974144;28;20974;-78
2023/10/17 02:24:09;;;;;;;9.07;3.57;;;8.10;99.90;;;;;;4974328;28;20281;-78
2023/10/17 02:26:42;;;;;;;6.20;3.63;;;8.10;99.90;;;;;;4973859;28;20377;-78
2023/10/17 02:29:11;;;;;;;12.03;4.27;;;8.10;99.90;;;;;;4974188;28;20326;-78
2023/10/17 02:31:40;;;;;;;8.20;3.57;;;8.10;99.90;;;;;;4973726;28;20326;-78
2023/10/17 02:34:09;;;;;;;6.13;3.17;;;8.00;99.90;;;;;;4973266;28;20791;-79
2023/10/17 02:36:35;;;;;;;9.83;3.93;;;8.00;99.90;;;;;;4973961;28;20372;-78
2023/10/17 02:39:00;;;;;;;9.50;3.63;;;8.00;99.90;;;;;;4974198;28;20365;-79
2023/10/17 02:41:28;;;;;;;9.60;3.60;;;7.90;99.90;;;;;;4972725;28;20055;-75
2023/10/17 02:43:54;;;;;;;7.70;3.33;;;7.90;99.90;;;;;;4972939;28;20129;-75
2023/10/17 02:46:26;;;;;;;6.53;2.97;;;7.90;99.90;;;;;;4972985;28;20314;-75
2023/10/17 02:48:56;;;;;;;6.53;2.90;;;7.80;99.90;;;;;;4974405;28;20278;-75
2023/10/17 02:53:51;;;;;;;6.93;3.10;;;7.80;99.90;;;;;;4976659;28;20774;-75
2023/10/17 02:56:21;;;;;;;8.27;3.50;;;7.80;99.90;;;;;;4976964;28;20716;-76
2023/10/17 02:59:06;;;;;;;6.13;2.90;;;7.80;99.90;;;;;;4976471;28;21079;-75
2023/10/17 03:01:36;;;;;;;10.07;3.40;;;7.70;99.90;;;;;;4977539;28;20881;-75
2023/10/17 03:04:09;;;;;;;7.40;3.10;;;7.70;99.90;;;;;;4977843;28;20045;-76
2023/10/17 03:06:41;;;;;;;9.40;4.33;;;7.60;99.90;;;;;;4977450;28;20349;-76
2023/10/17 03:14:23;;;;;;;7.50;3.27;;;7.50;99.90;;;;;;4977701;28;20751;-77
2023/10/17 03:16:52;;;;;;;6.60;2.90;;;7.50;99.90;;;;;;4977318;28;20282;-76
2023/10/17 03:19:27;;;;;;;7.60;3.00;;;7.50;99.90;;;;;;4977468;28;20337;-76
2023/10/17 03:24:48;;;;;;;8.27;2.93;;;7.50;99.90;;;;;;4976972;28;20294;-76
2023/10/17 03:27:27;;;;;;;7.07;3.00;;;7.40;99.90;;;;;;4977446;28;20293;-77
2023/10/17 03:29:53;;;;;;;6.53;2.80;;;7.50;99.90;;;;;;4977093;28;20287;-76
2023/10/17 03:32:22;;;;;;;7.70;2.87;;;7.40;99.90;;;;;;4977467;28;20300;-76
2023/10/17 03:34:56;;;;;;;7.20;2.77;;;7.40;99.90;;;;;;4977210;28;20085;-76
2023/10/17 03:39:57;;;;;;;8.07;3.53;;;7.30;99.90;;;;;;4976886;28;20282;-77
2023/10/17 03:45:16;;;;;;;8.70;4.03;;;7.30;99.90;;;;;;4977519;28;20298;-77
2023/10/17 03:47:47;;;;;;;6.83;3.20;;;7.30;99.90;;;;;;4977018;28;20285;-77
2023/10/17 03:50:36;;;;;;;5.97;2.87;;;7.30;99.90;;;;;;4977413;28;20336;-77
2023/10/17 03:53:15;;;;;;;9.13;3.27;;;7.30;99.90;;;;;;4976278;28;20689;-76
2023/10/17 03:55:43;;;;;;;10.03;3.63;;;7.20;99.90;;;;;;4976887;28;20285;-76
2023/10/17 03:58:24;;;;;;;8.13;2.83;;;7.20;99.90;;;;;;4976802;28;20329;-76
2023/10/17 04:00:54;;;;;;;6.47;2.97;;;7.20;99.90;;;;;;4976589;28;20310;-76
2023/10/17 04:05:52;;;;;;;6.47;2.93;;;7.10;99.90;;;;;;4976478;28;20639;-76
2023/10/17 04:08:31;;;;;;;6.77;3.03;;;7.10;99.90;;;;;;4976779;28;20046;-76
2023/10/17 04:11:17;;;;;;;7.53;2.80;;;7.20;99.90;;;;;;4976352;28;20286;-76
2023/10/17 04:13:50;;;;;;;9.67;3.37;;;7.10;99.90;;;;;;4976186;28;20286;-76
2023/10/17 04:16:28;;;;;;;7.37;2.67;;;7.10;99.90;;;;;;4976582;28;20318;-77
2023/10/17 04:18:57;;;;;;;11.20;3.90;;;7.10;99.90;;;;;;4975315;28;20285;-77
2023/10/17 04:21:27;;;;;;;8.20;2.73;;;7.10;99.90;;;;;;4976287;28;20361;-77
2023/10/17 04:23:55;;;;;;;9.07;3.67;;;7.20;99.90;;;;;;4975975;28;20762;-77
2023/10/17 04:26:27;;;;;;;7.53;3.57;;;7.10;99.90;;;;;;4976421;28;20310;-77
2023/10/17 04:29:00;;;;;;;8.03;3.67;;;7.10;99.90;;;;;;4975849;28;20763;-77
2023/10/17 04:31:30;;;;;;;6.43;3.13;;;7.00;99.90;;;;;;4976175;28;20289;-77
2023/10/17 04:33:58;;;;;;;6.07;3.20;;;7.00;99.90;;;;;;4974588;28;20282;-77
2023/10/17 04:36:26;;;;;;;7.37;3.57;;;7.00;99.90;;;;;;4976089;28;20275;-77
2023/10/17 04:39:11;;;;;;;10.70;3.93;;;7.00;99.90;;;;;;4975538;28;20772;-77
2023/10/17 04:44:50;;;;;;;8.67;3.73;;;6.90;99.90;;;;;;4976107;28;20773;-77
2023/10/17 04:49:44;;;;;;;11.03;3.33;;;6.80;99.90;;;;;;4975742;28;20322;-76
2023/10/17 04:52:13;;;;;;;9.80;3.90;;;6.80;99.90;;;;;;4975987;28;20289;-76
2023/10/17 04:54:42;;;;;;;9.03;3.83;;;6.90;99.90;;;;;;4975820;28;20357;-77
2023/10/17 04:57:09;;;;;;;8.70;3.70;;;6.90;99.90;;;;;;4974514;28;20703;-77
2023/10/17 06:18:33;;;;;;;8.93;3.13;;;7.20;99.90;;;;;;4974320;28;20322;-77
2023/10/17 06:34:18;;;;;;;5.80;2.30;;;7.10;99.90;;;;;;4974005;28;20290;-77
2023/10/17 06:36:45;;;;;;;8.70;2.83;;;7.20;99.90;;;;;;4974096;28;20274;-77
2023/10/17 06:39:19;;;;;;;7.37;2.30;;;7.10;99.90;;;;;;4973901;28;20357;-77
2023/10/17 06:41:46;;;;;;;6.80;2.42;;;7.10;99.90;;;;;;4974047;28;20286;-77
2023/10/17 06:44:21;;;;;;;7.57;2.43;;;7.10;99.90;;;;;;4973898;28;20490;-77
2023/10/17 06:47:17;;;;;;;7.80;2.70;;;7.10;99.90;;;;;;4974248;28;20302;-78
2023/10/17 06:54:50;;;;;;;8.13;3.10;;;7.20;99.90;;;;;;4974132;28;20054;-77
2023/10/17 06:57:19;;;;;;;6.47;2.93;;;7.10;99.90;;;;;;4973764;28;20278;-76
2023/10/17 06:59:52;;;;;;;5.93;2.10;;;7.10;99.90;;;;;;4974061;28;20286;-78
2023/10/17 07:02:28;;;;;;;11.30;2.30;;;7.10;99.90;;;;;;4973793;28;20279;-78
2023/10/17 07:04:55;;;;;;;;;;;7.10;99.90;;;;;;4974132;28;20373;-74
2023/10/17 07:07:23;;;;;;;9.33;2.20;;;7.10;99.90;;;;;;4973920;28;19926;-75
2023/10/17 07:09:52;;;;;;;6.53;2.47;;;7.00;99.90;;;;;;4972714;28;20642;-76
2023/10/17 07:12:20;;;;;;;7.17;3.00;;;7.00;99.90;;;;;;4973544;28;20286;-72
2023/10/17 07:14:51;;;;;;;5.03;2.13;;;7.00;99.90;;;;;;4972958;28;20353;-76
2023/10/17 07:17:26;;;;;;;7.47;2.00;;;7.10;99.90;;;;;;4973497;28;20631;-76
2023/10/17 07:19:59;;;;;;;7.03;1.93;;;7.00;99.90;;;;;;4974200;28;20282;-77
2023/10/17 07:22:25;;;;;;;6.37;2.60;;;7.00;99.90;;;;;;4972946;28;20282;-77
2023/10/17 07:24:52;;;;;;;6.60;2.30;;;7.00;99.90;;;;;;4973467;28;20322;-76
2023/10/17 07:27:18;;;;;;;8.10;2.30;;;7.10;99.90;;;;;;4972487;28;20293;-78
2023/10/17 07:30:03;;;;;;;6.57;2.10;;;7.10;99.90;;;;;;4973496;28;20286;-75
2023/10/17 07:32:33;;;;;;;9.63;2.30;;;7.10;99.90;;;;;;4973981;28;20760;-79
2023/10/17 07:35:01;;;;;;;6.13;2.50;;;7.10;99.90;;;;;;4973508;28;20281;-75
2023/10/17 07:37:27;;;;;;;7.50;2.53;;;7.20;99.90;;;;;;4973817;28;20286;-78
2023/10/17 07:42:40;;;;;;;7.78;2.45;;;7.40;99.90;;;;;;4977200;28;20105;-75
2023/10/17 07:45:14;;;;;;;4.63;2.13;;;7.50;99.90;;;;;;4977032;28;20078;-75
2023/10/17 07:47:44;;;;;;;8.20;3.07;;;7.50;99.90;;;;;;4977339;28;20282;-74
2023/10/17 07:50:13;;;;;;;5.43;2.33;;;7.50;99.90;;;;;;4976669;28;20286;-74
2023/10/17 07:52:43;;;;;;;7.50;2.47;;;7.50;99.90;;;;;;4976751;28;20290;-74
2023/10/17 07:57:55;;;;;;;4.90;2.47;;;7.40;99.90;;;;;;4977018;28;20361;-75
2023/10/17 08:00:26;;;;;;;8.83;2.83;;;7.40;99.90;;;;;;4976588;28;20391;-83
2023/10/17 08:03:17;;;;;;;8.40;2.47;;;7.40;99.90;;;;;;4976725;28;20290;-74
2023/10/17 08:05:45;;;;;;;8.30;2.43;;;7.50;99.90;;;;;;4977103;28;20309;-75
2023/10/17 08:08:14;;;;;;;7.03;2.67;;;7.50;99.90;;;;;;4976695;28;20297;-74
2023/10/17 08:10:45;;;;;;;6.43;2.80;;;7.60;99.90;;;;;;4976728;28;20857;-75
2023/10/17 08:13:12;;;;;;;8.90;2.80;;;7.60;99.90;;;;;;4976435;28;20329;-74
2023/10/17 08:18:16;;;;;;;9.53;2.80;;;7.60;99.90;;;;;;4976602;28;20282;-75
2023/10/17 08:21:07;;;;;;;8.63;2.40;;;7.60;99.90;;;;;;4976873;28;20310;-75
2023/10/17 08:23:34;;;;;;;10.97;3.07;;;7.60;99.90;;;;;;4976372;28;20322;-74
2023/10/17 08:26:01;;;;;;;8.67;2.70;;;7.60;99.90;;;;;;4976667;28;20389;-82
2023/10/17 08:28:37;;;;;;;7.20;2.57;;;7.70;99.90;;;;;;4959110;28;20298;-74
2023/10/17 08:31:32;;;;;;;7.70;2.60;;;7.70;99.90;;;;;;4969333;28;20670;-74
2023/10/17 08:34:02;;;;;;;8.30;2.80;;;7.80;99.90;;;;;;4965668;28;20283;-74
2023/10/17 08:36:42;;;;;;;12.47;3.10;;;7.90;99.90;;;;;;4964836;28;20338;-71
2023/10/17 08:39:56;;;;;;;23.30;5.40;;;8.00;99.90;;;;;;4965432;28;20683;-72
2023/10/17 08:42:11;;;;;;;11.60;3.40;;;8.10;99.90;;;;;;4963181;28;20287;-71
2023/10/17 08:44:41;;;;;;;9.77;2.83;;;8.30;99.90;;;;;;4965720;28;20285;-73
2023/10/17 08:47:08;;;;;;;12.37;3.37;;;8.30;99.90;;;;;;4964662;28;20286;-72
2023/10/17 08:49:33;;;;;;;11.77;2.93;;;8.50;99.90;;;;;;4966565;28;20654;-71
2023/10/17 08:51:59;;;;;;;8.47;2.90;;;8.60;99.90;;;;;;4965913;28;20290;-71
2023/10/17 08:54:28;;;;;;;8.30;2.20;;;8.70;99.90;;;;;;4964839;28;20054;-71
2023/10/17 08:56:55;;;;;;;7.40;2.43;;;8.80;99.90;;;;;;4958783;28;20047;-71
2023/10/17 09:02:32;;;;;;;4.83;1.93;;;9.10;99.90;;;;;;4935576;28;20326;-72
2023/10/17 09:05:05;;;;;;;5.00;1.40;;;9.20;99.90;;;;;;4956591;28;20679;-71
2023/10/17 09:07:42;;;;;;;4.17;1.50;;;9.30;99.90;;;;;;4955147;29;20298;-76
2023/10/17 09:10:20;;;;;;;8.00;2.23;;;9.40;99.90;;;;;;4956696;28;20293;-71
2023/10/17 09:13:52;;;;;;;6.30;1.90;;;9.50;99.90;;;;;;4956476;28;20338;-71
2023/10/17 09:16:10;;;;;;;5.47;1.87;;;9.60;99.90;;;;;;4954767;29;20842;-71
2023/10/17 09:18:40;;;;;;;6.33;1.93;;;9.60;99.90;;;;;;4956182;28;20283;-71
2023/10/17 09:21:06;;;;;;;7.13;2.00;;;9.70;99.90;;;;;;4955138;29;20287;-72
2023/10/17 09:23:32;;;;;;;7.90;2.60;;;9.80;99.90;;;;;;4955854;28;20283;-74
2023/10/17 09:26:01;;;;;;;8.60;2.50;;;9.80;99.90;;;;;;4955727;28;20775;-75
2023/10/17 09:28:28;;;;;;;8.57;3.07;;;9.90;99.90;;;;;;4954687;29;20138;-75
2023/10/17 09:30:59;;;;;;;7.83;2.90;;;9.90;99.90;;;;;;4954800;29;20306;-75
2023/10/17 09:33:31;;;;;;;6.30;2.93;;;9.90;99.90;;;;;;4955607;28;20283;-75
2023/10/17 09:35:59;;;;;;;9.23;4.43;;;10.00;99.90;;;;;;4956032;28;20279;-84
2023/10/17 09:38:30;;;;;;;9.20;3.53;;;10.10;99.90;;;;;;4955451;28;20829;-75
2023/10/17 09:41:00;;;;;;;9.33;4.30;;;10.10;99.90;;;;;;4954502;29;20802;-74
2023/10/17 09:43:26;;;;;;;9.50;5.57;;;10.10;99.90;;;;;;4955481;28;20635;-73
2023/10/17 09:45:55;;;;;;;8.40;4.43;;;10.20;99.90;;;;;;4954340;29;20298;-72
2023/10/17 09:48:32;;;;;;;10.40;4.30;;;10.30;99.90;;;;;;4955557;28;20299;-73
2023/10/17 09:51:01;;;;;;;7.63;4.10;;;10.30;99.90;;;;;;4966104;28;20759;-76
2023/10/17 09:53:32;;;;;;;8.23;4.00;;;10.40;99.90;;;;;;4962389;28;20696;-76
2023/10/17 09:56:16;;;;;;;7.37;3.27;;;10.40;99.90;;;;;;4963982;28;20306;-77
2023/10/17 09:58:47;;;;;;;8.60;2.90;;;10.40;99.90;;;;;;4965786;28;20360;-76
2023/10/17 10:01:18;;;;;;;8.43;2.83;;;10.50;99.90;;;;;;4964192;28;20319;-77
2023/10/17 10:03:48;;;;;;;9.97;2.67;;;10.50;99.90;;;;;;4963484;28;20318;-78
2023/10/17 10:06:31;;;;;;;7.27;2.43;;;10.50;99.90;;;;;;4963868;28;20786;-74
2023/10/17 10:09:13;;;;;;;10.20;2.33;;;10.60;99.90;;;;;;4964158;28;20287;-76
2023/10/17 10:11:51;;;;;;;6.10;2.30;;;10.60;99.90;;;;;;4964902;28;20290;-76
2023/10/17 10:14:26;;;;;;;5.73;2.63;;;10.70;99.90;;;;;;4964606;28;20375;-77
2023/10/17 10:17:05;;;;;;;6.32;2.65;;;10.70;99.90;;;;;;4964397;28;20779;-83
2023/10/17 10:19:40;;;;;;;9.37;2.77;;;10.70;99.90;;;;;;4964336;28;20499;-72
2023/10/17 10:22:16;;;;;;;8.27;2.80;;;10.70;99.90;;;;;;4963528;28;20327;-76
2023/10/17 10:24:43;;;;;;;8.17;2.73;;;10.80;99.90;;;;;;4962808;28;20098;-72
2023/10/17 10:27:15;;;;;;;7.37;2.67;;;10.80;99.90;;;;;;4964329;28;20868;-71
2023/10/17 10:29:42;;;;;;;8.97;2.73;;;10.90;99.90;;;;;;4964688;28;20797;-73
2023/10/17 10:32:35;;;;;;;7.70;2.60;;;10.90;99.90;;;;;;4963360;28;20639;-75
2023/10/17 10:35:03;;;;;;;7.57;2.63;;;11.00;99.90;;;;;;4959854;28;20323;-74
2023/10/17 10:37:29;;;;;;;4.13;2.07;;;11.00;99.90;;;;;;4954486;28;20754;-74
2023/10/17 10:40:16;;;;;;;7.07;2.03;;;11.00;99.90;;;;;;4954950;29;20293;-74
2023/10/17 10:42:47;;;;;;;8.47;1.70;;;11.00;99.90;;;;;;4954698;28;20058;-74
2023/10/17 10:45:26;;;;;;;5.07;1.50;;;11.10;99.90;;;;;;4954658;28;20736;-75
2023/10/17 10:47:58;;;;;;;4.23;1.47;;;11.10;99.90;;;;;;4982166;28;20284;-74
2023/10/17 10:50:33;;;;;;;4.47;1.20;;;11.20;99.90;;;;;;4976129;28;20285;-74
2023/10/17 10:53:01;;;;;;;3.80;1.57;;;11.20;99.90;;;;;;4993454;28;20285;-74
2023/10/17 10:55:30;;;;;;;7.23;1.40;;;11.20;99.90;;;;;;4991153;28;20625;-74
2023/10/17 10:57:58;;;;;;;5.73;1.70;;;11.20;99.90;;;;;;4993315;28;20405;-74
2023/10/17 11:00:25;;;;;;;5.60;1.63;;;11.20;99.90;;;;;;4973905;28;20337;-74
2023/10/17 11:02:51;;;;;;;6.83;1.67;;;11.20;99.90;;;;;;4963931;28;20290;-75
2023/10/17 11:05:17;;;;;;;6.57;1.90;;;11.20;99.90;;;;;;4961825;28;20313;-83
2023/10/17 11:07:44;;;;;;;4.03;1.40;;;11.20;99.90;;;;;;4947434;28;20286;-74
2023/10/17 11:10:11;;;;;;;4.60;1.53;;;11.30;99.90;;;;;;4963812;28;20043;-72
2023/10/17 11:12:38;;;;;;;5.70;1.30;;;11.30;99.90;;;;;;4954016;28;20374;-73
2023/10/17 11:15:12;;;;;;;5.23;1.43;;;11.30;99.90;;;;;;4957477;28;20700;-73
2023/10/17 11:17:42;;;;;;;5.77;1.23;;;11.40;99.90;;;;;;4957573;28;20330;-73
2023/10/17 11:20:18;;;;;;;4.30;1.40;;;11.40;99.90;;;;;;4958248;28;20290;-73
2023/10/17 11:22:47;;;;;;;4.70;1.50;;;11.40;99.90;;;;;;4957081;29;20299;-73
2023/10/17 11:25:34;;;;;;;5.17;1.17;;;11.50;99.90;;;;;;4956675;29;20328;-74
2023/10/17 11:28:06;;;;;;;6.77;1.77;;;11.50;99.90;;;;;;4957532;29;20274;-73
2023/10/17 11:30:40;;;;;;;3.53;1.10;;;11.50;99.90;;;;;;4956813;29;20279;-73
2023/10/17 11:33:10;;;;;;;5.40;1.30;;;11.60;99.90;;;;;;4958119;28;20279;-74
2023/10/17 11:35:37;;;;;;;5.30;1.47;;;11.60;99.90;;;;;;4957698;28;20271;-73
2023/10/17 11:38:03;;;;;;;7.60;2.77;;;11.60;99.90;;;;;;4957757;28;20279;-73
2023/10/17 11:40:38;;;;;;;5.30;1.10;;;11.60;99.90;;;;;;4957738;28;20703;-72
2023/10/17 11:43:18;;;;;;;7.38;1.23;;;11.70;99.90;;;;;;4957917;28;20287;-73
2023/10/17 11:45:45;;;;;;;4.73;1.10;;;11.70;99.90;;;;;;4956328;29;20094;-72
2023/10/17 11:48:31;;;;;;;4.93;1.63;;;11.70;99.90;;;;;;4957570;28;20362;-73
2023/10/17 11:51:13;;;;;;;3.63;1.27;;;11.70;99.90;;;;;;4957693;28;20291;-73
2023/10/17 11:54:07;;;;;;;4.73;1.10;;;11.70;99.90;;;;;;4957400;28;20283;-73
2023/10/17 11:56:37;;;;;;;5.00;1.23;;;11.80;99.90;;;;;;4957086;29;20346;-72
2023/10/17 11:59:07;;;;;;;4.63;1.27;;;11.80;99.90;;;;;;4957754;28;20301;-73
2023/10/17 12:01:32;;;;;;;5.70;1.23;;;11.80;99.90;;;;;;4957376;28;20283;-72
2023/10/17 12:04:10;;;;;;;2.93;1.03;;;11.70;99.90;;;;;;4957516;28;20286;-73
2023/10/17 12:06:37;;;;;;;6.27;1.83;;;11.70;99.90;;;;;;4957109;28;20365;-72
2023/10/17 12:09:17;;;;;;;3.73;1.47;;;11.70;99.90;;;;;;4957178;28;20279;-73
2023/10/17 12:11:46;;;;;;;9.07;1.50;;;11.70;99.90;;;;;;4957203;28;20283;-72
2023/10/17 12:14:19;;;;;;;6.27;1.40;;;11.80;99.90;;;;;;4956600;29;20287;-73
2023/10/17 12:16:49;;;;;;;4.17;1.20;;;11.80;99.90;;;;;;4956077;29;20346;-72
2023/10/17 12:19:18;;;;;;;7.27;1.30;;;11.80;99.90;;;;;;4957045;28;20299;-72
2023/10/17 12:21:47;;;;;;;7.70;1.70;;;11.80;99.90;;;;;;4955693;29;20315;-72
2023/10/17 12:24:16;;;;;;;5.80;1.27;;;11.80;99.90;;;;;;4956829;28;20297;-73
2023/10/17 12:26:45;;;;;;;6.53;1.20;;;11.70;99.90;;;;;;4956886;28;20303;-72
2023/10/17 12:29:12;;;;;;;5.50;1.20;;;11.70;99.90;;;;;;4955910;29;20337;-72
2023/10/17 12:31:41;;;;;;;3.67;1.00;;;11.70;99.90;;;;;;4956714;28;20287;-73
2023/10/17 12:34:08;;;;;;;4.13;1.20;;;11.80;99.90;;;;;;4956778;28;20282;-73
2023/10/17 12:36:35;;;;;;;4.80;1.30;;;11.80;99.90;;;;;;4955737;29;20394;-72
2023/10/17 12:39:02;;;;;;;3.57;1.10;;;11.80;99.90;;;;;;4956910;28;20639;-73
2023/10/17 12:41:31;;;;;;;6.33;1.30;;;11.80;99.90;;;;;;4956934;28;20283;-73
2023/10/17 12:43:56;;;;;;;5.13;1.70;;;11.80;99.90;;;;;;4956445;28;20283;-73
2023/10/17 12:46:22;;;;;;;3.70;1.13;;;11.90;99.90;;;;;;4956686;29;20350;-73
2023/10/17 12:48:48;;;;;;;3.37;1.20;;;11.90;99.90;;;;;;4956275;29;20403;-73
2023/10/17 12:51:14;;;;;;;4.73;1.17;;;11.90;99.90;;;;;;4956610;28;20054;-76
2023/10/17 12:53:40;;;;;;;4.53;1.70;;;12.00;99.90;;;;;;4956569;28;20055;-75
2023/10/17 12:56:10;;;;;;;4.83;1.40;;;11.90;99.90;;;;;;4955705;29;20278;-73
2023/10/17 12:58:36;;;;;;;4.47;1.20;;;12.00;99.90;;;;;;4956431;28;20063;-73
2023/10/17 13:01:05;;;;;;;5.93;1.30;;;12.00;99.90;;;;;;4956403;28;20286;-72
2023/10/17 13:03:36;;;;;;;7.77;1.40;;;12.00;99.90;;;;;;4956233;29;20431;-74
2023/10/17 13:06:02;;;;;;;4.83;1.13;;;12.00;99.90;;;;;;4956536;28;20310;-73
2023/10/17 13:08:28;;;;;;;4.63;1.50;;;12.00;99.90;;;;;;4956360;28;20628;-71
2023/10/17 13:10:55;;;;;;;5.80;1.57;;;12.00;99.90;;;;;;4955866;29;20291;-71
2023/10/17 13:13:22;;;;;;;5.77;1.40;;;12.00;99.90;;;;;;4956225;28;20047;-71
2023/10/17 13:15:48;;;;;;;4.40;1.33;;;12.00;99.90;;;;;;4955872;28;20314;-71
2023/10/17 13:18:14;;;;;;;4.47;1.30;;;12.10;99.90;;;;;;4955978;28;20291;-71
2023/10/17 13:20:48;;;;;;;4.50;1.40;;;12.10;99.90;;;;;;4955898;28;20279;-70
2023/10/17 13:23:18;;;;;;;3.60;1.20;;;12.00;99.90;;;;;;4956384;28;20342;-71
2023/10/17 13:25:44;;;;;;;7.20;2.63;;;12.00;99.90;;;;;;4955371;28;20303;-70
2023/10/17 13:28:10;;;;;;;4.67;1.40;;;12.00;99.90;;;;;;4955972;28;20341;-74
2023/10/17 13:30:37;;;;;;;5.43;1.60;;;12.00;99.90;;;;;;4954813;29;20826;-77
2023/10/17 13:33:03;;;;;;;3.37;1.27;;;12.00;99.90;;;;;;4955662;28;20282;-74
2023/10/17 13:35:30;;;;;;;4.70;1.63;;;12.00;99.90;;;;;;4960598;28;20440;-71
2023/10/17 13:37:58;;;;;;;6.50;2.23;;;12.00;99.90;;;;;;4964814;28;20659;-71
2023/10/17 13:40:25;;;;;;;4.47;1.33;;;12.00;99.90;;;;;;4963805;28;20723;-71
2023/10/17 13:42:54;;;;;;;5.17;1.20;;;12.00;99.90;;;;;;4964431;28;20282;-71
2023/10/17 13:45:21;;;;;;;5.53;1.50;;;12.00;99.90;;;;;;4965734;28;20710;-74
2023/10/17 13:47:51;;;;;;;4.40;1.30;;;12.10;99.90;;;;;;4964024;28;20700;-72
2023/10/17 13:50:19;;;;;;;5.67;1.60;;;12.10;99.90;;;;;;4956178;28;20306;-74
2023/10/17 13:52:52;;;;;;;3.67;1.40;;;12.10;99.90;;;;;;4955268;28;20282;-74
2023/10/17 13:55:27;;;;;;;6.03;1.50;;;12.10;99.90;;;;;;4958436;28;20350;-71
2023/10/17 13:58:01;;;;;;;8.00;1.38;;;12.10;99.90;;;;;;4994266;28;20284;-71
2023/10/17 14:00:42;;;;;;;6.07;1.50;;;12.10;99.90;;;;;;4994179;28;20054;-71
2023/10/17 14:03:09;;;;;;;4.47;1.57;;;12.10;99.90;;;;;;4994068;28;20285;-71
2023/10/17 14:05:34;;;;;;;7.30;1.83;;;12.10;99.90;;;;;;4993766;28;20388;-71
2023/10/17 14:08:01;;;;;;;5.67;1.70;;;12.10;99.90;;;;;;4993532;28;20361;-70
2023/10/17 14:10:26;;;;;;;4.80;1.60;;;12.10;99.90;;;;;;4994248;28;20105;-71
2023/10/17 14:12:53;;;;;;;3.97;1.57;;;12.10;99.90;;;;;;4993796;28;20286;-71
2023/10/17 14:15:19;;;;;;;5.60;1.73;;;12.00;99.90;;;;;;4994137;28;20053;-72
2023/10/17 14:17:45;;;;;;;5.90;1.50;;;12.00;99.90;;;;;;4993625;28;20286;-70
2023/10/17 14:20:17;;;;;;;3.13;1.50;;;12.00;99.90;;;;;;4992757;28;20402;-71
2023/10/17 14:23:08;;;;;;;6.37;1.30;;;12.00;99.90;;;;;;4993648;28;20432;-71
2023/10/17 14:28:16;;;;;;;4.33;1.80;;;12.00;99.90;;;;;;4992554;28;20695;-72
2023/10/17 14:30:42;;;;;;;7.23;1.80;;;12.00;99.90;;;;;;4991485;28;20292;-72
2023/10/17 14:33:09;;;;;;;5.80;2.77;;;12.00;99.90;;;;;;4992772;28;20289;-72
2023/10/17 14:35:35;;;;;;;5.20;1.90;;;12.00;99.90;;;;;;4993687;28;20054;-72
2023/10/17 14:38:01;;;;;;;5.47;1.97;;;12.00;99.90;;;;;;4993405;28;20336;-72
2023/10/17 14:40:31;;;;;;;6.33;1.70;;;12.00;99.90;;;;;;4992253;28;20340;-71
2023/10/17 14:42:58;;;;;;;5.90;2.00;;;12.00;99.90;;;;;;4973853;28;20313;-69
2023/10/17 14:45:25;;;;;;;6.20;1.83;;;12.00;99.90;;;;;;4973912;28;20711;-72
2023/10/17 14:47:52;;;;;;;4.03;1.57;;;12.00;99.90;;;;;;4975250;28;20277;-70
2023/10/17 14:50:18;;;;;;;4.90;2.10;;;12.00;99.90;;;;;;4980581;28;20292;-69
2023/10/17 14:52:44;;;;;;;6.53;2.10;;;12.00;99.90;;;;;;4980440;28;20770;-69
2023/10/17 14:55:23;;;;;;;5.37;1.40;;;12.00;99.90;;;;;;4979140;28;20293;-69
2023/10/17 14:57:49;;;;;;;5.37;1.90;;;11.90;99.90;;;;;;4980179;28;20487;-69
2023/10/17 15:00:15;;;;;;;3.60;1.57;;;11.90;99.90;;;;;;4980194;28;20317;-70
2023/10/17 15:02:44;;;;;;;4.30;1.60;;;11.90;99.90;;;;;;4980354;28;20057;-69
2023/10/17 15:05:13;;;;;;;4.07;1.47;;;11.90;99.90;;;;;;4974318;28;20305;-69
2023/10/17 15:07:42;;;;;;;5.47;1.80;;;11.90;99.90;;;;;;4969232;28;20613;-70
2023/10/17 15:10:12;;;;;;;4.87;1.63;;;11.90;99.90;;;;;;4970194;28;20282;-71
2023/10/17 15:12:45;;;;;;;3.97;1.60;;;11.90;99.90;;;;;;4970905;28;20285;-73
2023/10/17 15:15:13;;;;;;;5.27;1.40;;;11.90;99.90;;;;;;4970016;28;20389;-73
2023/10/17 15:17:42;;;;;;;6.10;1.50;;;11.90;99.90;;;;;;4969122;28;20285;-74
2023/10/17 15:20:12;;;;;;;3.70;1.27;;;11.80;99.90;;;;;;4970036;28;20278;-74
2023/10/17 15:22:39;;;;;;;4.40;1.50;;;11.80;99.90;;;;;;4969832;28;20290;-74
2023/10/17 15:25:06;;;;;;;4.67;1.67;;;11.80;99.90;;;;;;4968875;28;20291;-73
2023/10/17 15:27:32;;;;;;;3.60;1.40;;;11.80;99.90;;;;;;4969875;28;20365;-74
2023/10/17 15:29:58;;;;;;;7.17;1.80;;;11.70;99.90;;;;;;4970708;28;20365;-73
2023/10/17 15:32:24;;;;;;;9.57;2.30;;;11.70;99.90;;;;;;4969143;28;20486;-74